Time;durP1;ratioP1;P1;durP2;ratioP2;P2;SDS_P1;SDS_P2;PMS_P1;PMS_P2;Temp;Humidity;BMP_temperature;BMP_pressure;BME280_temperature;BME280_humidity;BME280_pressure;Samples;Min_cycle;Max_cycle;Signal;HPM_P1;HPM_P2
2023/12/22 00:01:49;;;;;;;;;;;;;;;25.76;36.92;93363.88;5031067;28;6989;-55
2023/12/22 00:04:15;;;;;;;;;;;;;;;25.78;36.56;93368.84;5034298;28;9059;-55
2023/12/22 00:06:51;;;;;;;;;;;;;;;25.76;37.00;93360.38;5041574;28;7007;-55
2023/12/22 00:09:26;;;;;;;;;;;;;;;25.78;36.54;93364.09;5033860;28;7316;-55
2023/12/22 00:11:57;;;;;;;;;;;;;;;25.76;37.02;93355.63;5017854;28;7226;-55
2023/12/22 00:14:32;;;;;;;;;;;;;;;25.76;36.80;93343.88;5029855;28;7056;-55
2023/12/22 00:17:18;;;;;;;;;;;;;;;25.78;36.86;93364.09;5016369;28;6982;-55
2023/12/22 00:19:56;;;;;;;;;;;;;;;25.77;36.96;93340.59;5040845;28;9001;-55
2023/12/22 00:22:35;;;;;;;;;;;;;;;25.78;36.56;93346.81;5026522;28;7808;-55
2023/12/22 00:25:10;;;;;;;;;;;;;;;25.69;37.13;93347.28;5045536;28;6962;-55
2023/12/22 00:27:48;;;;;;;;;;;;;;;25.73;36.54;93355.97;5049833;28;7368;-60
2023/12/22 00:30:16;;;;;;;;;;;;;;;25.75;36.46;93345.88;5030146;28;7220;-61
2023/12/22 00:32:47;;;;;;;;;;;;;;;25.75;36.78;93358.94;5041332;28;7293;-61
2023/12/22 00:35:20;;;;;;;;;;;;;;;25.75;36.54;93364.44;5026348;28;6990;-61
2023/12/22 00:37:46;;;;;;;;;;;;;;;25.78;36.13;93366.09;5023861;28;7187;-61
2023/12/22 00:40:16;;;;;;;;;;;;;;;25.74;36.61;93374.69;5037480;28;8936;-60
2023/12/22 00:42:43;;;;;;;;;;;;;;;25.74;36.71;93365.69;5022295;28;6895;-61
2023/12/22 00:45:17;;;;;;;;;;;;;;;25.76;36.38;93366.63;5014599;28;7232;-61
2023/12/22 00:47:44;;;;;;;;;;;;;;;25.80;36.46;93372.56;5028838;28;8827;-60
2023/12/22 00:50:26;;;;;;;;;;;;;;;25.77;36.69;93362.63;5028806;28;7462;-61
2023/12/22 00:52:57;;;;;;;;;;;;;;;25.81;36.74;93362.28;5022353;28;7228;-61
2023/12/22 00:55:26;;;;;;;;;;;;;;;25.77;36.29;93367.38;5035510;28;7197;-61
2023/12/22 00:58:01;;;;;;;;;;;;;;;25.81;36.60;93381.56;5031128;28;7237;-60
2023/12/22 01:00:38;;;;;;;;;;;;;;;25.78;36.43;93396.41;5014952;28;7153;-61
2023/12/22 01:03:17;;;;;;;;;;;;;;;25.79;36.59;93395.13;5024942;28;9064;-61
2023/12/22 01:05:43;;;;;;;;;;;;;;;25.78;36.91;93404.66;5019724;28;7155;-61
2023/12/22 01:08:17;;;;;;;;;;;;;;;25.79;37.00;93411.66;5029886;28;7340;-60
2023/12/22 01:10:52;;;;;;;;;;;;;;;25.79;36.22;93422.69;5033680;28;7207;-60
2023/12/22 01:13:20;;;;;;;;;;;;;;;25.79;37.00;93422.69;5040204;28;6958;-60
2023/12/22 01:15:55;;;;;;;;;;;;;;;25.78;37.08;93440.47;5026838;28;9135;-60
2023/12/22 01:18:21;;;;;;;;;;;;;;;25.79;36.15;93428.94;5020042;28;6964;-61
2023/12/22 01:20:49;;;;;;;;;;;;;;;25.79;36.52;93433.69;5018227;28;8099;-61
2023/12/22 01:23:18;;;;;;;;;;;;;;;25.78;36.75;93441.22;5014225;28;7067;-61
2023/12/22 01:25:49;;;;;;;;;;;;;;;25.78;36.45;93424.69;5015382;28;6990;-61
2023/12/22 01:28:25;;;;;;;;;;;;;;;25.77;37.02;93417.72;5019838;28;9421;-61
2023/12/22 01:30:53;;;;;;;;;;;;;;;25.76;36.02;93430.00;5026520;28;6991;-61
2023/12/22 01:33:26;;;;;;;;;;;;;;;25.78;36.08;93432.94;5033510;28;7076;-61
2023/12/22 01:35:54;;;;;;;;;;;;;;;25.76;36.83;93405.19;5037579;28;9047;-62
2023/12/22 01:38:20;;;;;;;;;;;;;;;25.80;36.17;93424.16;5017847;28;7422;-62
2023/12/22 01:40:48;;;;;;;;;;;;;;;25.80;36.42;93427.66;5016786;28;9623;-62
2023/12/22 01:43:21;;;;;;;;;;;;;;;25.79;36.61;93428.94;5024170;28;8913;-62
2023/12/22 01:46:21;;;;;;;;;;;;;;;25.79;36.12;93436.44;5019668;28;7097;-62
2023/12/22 01:49:22;;;;;;;;;;;;;;;25.78;36.46;93430.19;4964017;28;7288;-62
2023/12/22 01:51:59;;;;;;;;;;;;;;;25.77;36.72;93419.72;4925390;28;7148;-62
2023/12/22 01:54:25;;;;;;;;;;;;;;;25.76;36.59;93412.72;4914918;29;7224;-62
2023/12/22 01:57:00;;;;;;;;;;;;;;;25.78;36.29;93401.91;4928910;28;6993;-62
2023/12/22 01:59:26;;;;;;;;;;;;;;;25.70;36.82;93401.84;4924985;29;7638;-62
2023/12/22 02:02:03;;;;;;;;;;;;;;;25.74;36.64;93424.28;4920522;29;7238;-62
2023/12/22 02:04:33;;;;;;;;;;;;;;;25.76;36.38;93430.00;4937340;28;9065;-62
2023/12/22 02:07:01;;;;;;;;;;;;;;;25.72;36.88;93418.56;4927783;29;7177;-61
2023/12/22 02:09:30;;;;;;;;;;;;;;;25.75;36.40;93428.50;4938190;28;7577;-62
2023/12/22 02:11:58;;;;;;;;;;;;;;;25.66;36.68;93426.22;4935239;28;7074;-62
2023/12/22 02:14:27;;;;;;;;;;;;;;;25.66;37.25;93426.22;4936790;28;8169;-61
2023/12/22 02:17:03;;;;;;;;;;;;;;;25.69;36.80;93427.16;4932043;28;9141;-62
2023/12/22 02:19:45;;;;;;;;;;;;;;;25.71;36.68;93417.06;4917734;29;7155;-62
2023/12/22 02:22:13;;;;;;;;;;;;;;;25.68;36.89;93418.16;4922164;29;7377;-62
2023/12/22 02:24:41;;;;;;;;;;;;;;;25.68;36.28;93431.19;4960850;28;7302;-62
2023/12/22 02:27:36;;;;;;;;;;;;;;;25.70;36.95;93429.38;4990386;28;7242;-62
2023/12/22 02:30:43;;;;;;;;;;;;;;;25.71;36.79;93430.13;5011954;28;8876;-62
2023/12/22 02:33:16;;;;;;;;;;;;;;;25.70;36.09;93412.09;5025434;28;7141;-62
2023/12/22 02:35:52;;;;;;;;;;;;;;;25.70;36.61;93409.34;5013013;28;7347;-62
2023/12/22 02:38:23;;;;;;;;;;;;;;;25.67;36.38;93402.91;5022898;28;7266;-62
2023/12/22 02:40:49;;;;;;;;;;;;;;;25.70;37.05;93401.09;5045973;28;9275;-61
2023/12/22 02:43:15;;;;;;;;;;;;;;;25.68;36.30;93390.63;5045090;28;7222;-62
2023/12/22 02:45:44;;;;;;;;;;;;;;;25.68;36.40;93393.38;5014339;28;7503;-62
2023/12/22 02:48:13;;;;;;;;;;;;;;;25.66;36.27;93401.44;5013637;28;7080;-62
2023/12/22 02:50:42;;;;;;;;;;;;;;;25.62;36.43;93401.00;5025588;28;7299;-62
2023/12/22 02:53:09;;;;;;;;;;;;;;;25.62;36.49;93406.50;5031241;28;7183;-62
2023/12/22 02:55:36;;;;;;;;;;;;;;;25.62;36.94;93406.50;5030239;28;7191;-62
2023/12/22 02:58:02;;;;;;;;;;;;;;;25.60;37.11;93403.56;5012450;28;6974;-61
2023/12/22 03:00:40;;;;;;;;;;;;;;;25.59;37.04;93398.59;5013620;28;7338;-62
2023/12/22 03:03:16;;;;;;;;;;;;;;;25.60;36.50;93397.31;5014041;28;8721;-62
2023/12/22 03:05:49;;;;;;;;;;;;;;;25.60;36.68;93403.56;5025463;28;8454;-62
2023/12/22 03:08:15;;;;;;;;;;;;;;;25.56;37.19;93408.66;5016949;28;7124;-61
2023/12/22 03:10:42;;;;;;;;;;;;;;;25.59;36.95;93417.88;5032387;28;7278;-61
2023/12/22 03:13:08;;;;;;;;;;;;;;;25.55;36.95;93417.44;5030635;28;7490;-61
2023/12/22 03:15:37;;;;;;;;;;;;;;;25.57;36.91;93437.69;5012668;28;7415;-62
2023/12/22 03:18:04;;;;;;;;;;;;;;;25.54;36.73;93458.00;5030707;28;7331;-62
2023/12/22 03:20:43;;;;;;;;;;;;;;;25.50;36.53;93445.84;5028891;28;7041;-61
2023/12/22 03:23:16;;;;;;;;;;;;;;;25.51;36.72;93447.31;5048843;28;7421;-62
2023/12/22 03:25:42;;;;;;;;;;;;;;;25.51;37.46;93452.84;5012236;28;7058;-61
2023/12/22 03:28:14;;;;;;;;;;;;;;;25.46;37.10;93435.16;5031682;28;6980;-61
2023/12/22 03:30:43;;;;;;;;;;;;;;;25.52;36.93;93460.56;5048373;28;9144;-62
2023/12/22 03:33:19;;;;;;;;;;;;;;;25.52;36.79;93454.31;5034853;28;7356;-62
2023/12/22 03:35:52;;;;;;;;;;;;;;;25.49;36.93;93456.09;5034184;28;9150;-62
2023/12/22 03:38:18;;;;;;;;;;;;;;;25.50;37.31;93459.59;5029062;28;9353;-61
2023/12/22 03:40:46;;;;;;;;;;;;;;;25.50;36.60;93465.09;5020731;28;9352;-61
2023/12/22 03:43:17;;;;;;;;;;;;;;;25.48;36.67;93457.38;5037884;28;7314;-61
2023/12/22 03:45:47;;;;;;;;;;;;;;;25.47;37.02;93452.41;5030589;28;7728;-61
2023/12/22 03:48:13;;;;;;;;;;;;;;;25.49;37.34;93455.38;5023688;28;6931;-61
2023/12/22 03:50:40;;;;;;;;;;;;;;;25.48;36.57;93440.13;5033170;28;7017;-62
2023/12/22 03:53:06;;;;;;;;;;;;;;;25.49;36.70;93441.63;5048108;28;7366;-62
2023/12/22 03:55:32;;;;;;;;;;;;;;;25.48;36.68;93456.66;5034643;28;7373;-62
2023/12/22 03:58:04;;;;;;;;;;;;;;;25.47;36.68;93449.66;5022533;28;9582;-61
2023/12/22 04:00:36;;;;;;;;;;;;;;;25.47;37.17;93458.66;5040715;28;7028;-61
2023/12/22 04:03:07;;;;;;;;;;;;;;;25.46;37.44;93470.94;5014633;28;8615;-61
2023/12/22 04:05:38;;;;;;;;;;;;;;;25.46;36.88;93475.72;5029517;28;8775;-61
2023/12/22 04:08:04;;;;;;;;;;;;;;;25.47;37.23;93483.44;5025285;28;7076;-61
2023/12/22 04:10:33;;;;;;;;;;;;;;;25.48;36.93;93478.66;5028677;28;6994;-61
2023/12/22 04:12:59;;;;;;;;;;;;;;;25.44;37.30;93484.50;5034249;28;7094;-61
2023/12/22 04:15:29;;;;;;;;;;;;;;;25.45;36.90;93477.00;5030534;28;7229;-61
2023/12/22 04:17:55;;;;;;;;;;;;;;;25.40;37.31;93471.00;5015487;28;7072;-61
2023/12/22 04:20:23;;;;;;;;;;;;;;;25.43;37.33;93483.75;5031970;28;7347;-61
2023/12/22 04:22:51;;;;;;;;;;;;;;;25.44;36.75;93479.00;5027712;28;9065;-61
2023/12/22 04:25:26;;;;;;;;;;;;;;;25.41;36.84;93491.03;5030832;28;7085;-61
2023/12/22 04:27:53;;;;;;;;;;;;;;;25.42;37.32;93489.81;5025896;28;7251;-61
2023/12/22 04:30:19;;;;;;;;;;;;;;;25.38;37.40;93500.38;5019769;28;7011;-61
2023/12/22 04:32:47;;;;;;;;;;;;;;;25.38;37.69;93503.13;5041804;28;7178;-61
2023/12/22 04:35:18;;;;;;;;;;;;;;;25.38;36.89;93497.63;5020984;28;9083;-61
2023/12/22 04:37:44;;;;;;;;;;;;;;;25.39;36.76;93488.06;5021982;28;7903;-61
2023/12/22 04:40:24;;;;;;;;;;;;;;;25.34;36.89;93508.19;5025122;28;7233;-61
2023/12/22 04:42:51;;;;;;;;;;;;;;;25.37;36.85;93518.16;5021495;28;7193;-61
2023/12/22 04:45:17;;;;;;;;;;;;;;;25.37;37.03;93537.41;5033771;28;7045;-61
2023/12/22 04:47:51;;;;;;;;;;;;;;;25.36;36.70;93546.94;5042016;28;9098;-61
2023/12/22 04:50:17;;;;;;;;;;;;;;;25.35;37.31;93559.22;5029037;28;8057;-61
2023/12/22 04:52:44;;;;;;;;;;;;;;;25.35;37.72;93559.97;5018449;28;9152;-60
2023/12/22 04:55:10;;;;;;;;;;;;;;;25.35;37.19;93561.97;5026035;28;9188;-61
2023/12/22 04:57:38;;;;;;;;;;;;;;;25.36;37.67;93571.69;5044876;28;6981;-61
2023/12/22 05:00:34;;;;;;;;;;;;;;;25.37;37.30;93573.19;5035004;28;10173;-61
2023/12/22 05:03:04;;;;;;;;;;;;;;;25.36;37.09;93557.94;4940626;28;9023;-61
2023/12/22 05:05:32;;;;;;;;;;;;;;;25.34;37.63;93574.25;4974409;28;7069;-57
2023/12/22 05:07:58;;;;;;;;;;;;;;;25.35;36.85;93567.47;4957516;28;7617;-56
2023/12/22 05:10:26;;;;;;;;;;;;;;;25.36;37.26;93557.94;4972637;28;9023;-56
2023/12/22 05:13:01;;;;;;;;;;;;;;;25.35;37.46;93570.25;4970079;28;7230;-56
2023/12/22 05:15:27;;;;;;;;;;;;;;;25.29;37.70;93550.34;4971532;28;9174;-55
2023/12/22 05:17:55;;;;;;;;;;;;;;;25.33;37.29;93565.28;4970491;28;7229;-56
2023/12/22 05:20:35;;;;;;;;;;;;;;;25.33;37.77;93568.03;4969228;28;7381;-56
2023/12/22 05:23:06;;;;;;;;;;;;;;;25.34;37.12;93574.25;4973168;28;6907;-56
2023/12/22 05:25:32;;;;;;;;;;;;;;;25.37;37.97;93571.19;4937763;28;8686;-56
2023/12/22 05:28:07;;;;;;;;;;;;;;;25.42;37.38;93555.88;4962763;28;7889;-56
2023/12/22 05:30:37;;;;;;;;;;;;;;;25.39;37.21;93557.66;4960130;28;7272;-56
2023/12/22 05:33:03;;;;;;;;;;;;;;;25.41;38.04;93566.09;4961196;28;7160;-56
2023/12/22 05:35:31;;;;;;;;;;;;;;;25.38;38.38;93561.66;4965239;28;7047;-56
2023/12/22 05:37:57;;;;;;;;;;;;;;;25.36;37.88;93563.44;4969528;28;7317;-56
2023/12/22 05:40:25;;;;;;;;;;;;;;;25.33;37.63;93564.53;5033846;28;7180;-56
2023/12/22 05:43:24;;;;;;;;;;;;;;;25.38;37.54;93563.69;5021414;28;7307;-56
2023/12/22 05:46:26;;;;;;;;;;;;;;;25.39;37.96;93560.41;4984491;28;7054;-56
2023/12/22 05:48:57;;;;;;;;;;;;;;;25.38;37.45;93571.94;4894628;29;6998;-56
2023/12/22 05:51:51;;;;;;;;;;;;;;;25.38;38.04;93580.19;4896387;29;6992;-56
2023/12/22 05:54:19;;;;;;;;;;;;;;;25.37;37.88;93571.19;4879022;29;8326;-56
2023/12/22 05:56:55;;;;;;;;;;;;;;;25.38;37.70;93577.44;4896311;29;7258;-56
2023/12/22 05:59:23;;;;;;;;;;;;;;;25.34;38.02;93586.00;4878962;29;7168;-56
2023/12/22 06:01:53;;;;;;;;;;;;;;;25.44;38.23;93594.63;4877960;29;7137;-56
2023/12/22 06:04:22;;;;;;;;;;;;;;;25.45;37.96;93582.31;4875023;29;7168;-56
2023/12/22 06:06:48;;;;;;;;;;;;;;;25.50;37.67;93578.75;4895111;29;9042;-56
2023/12/22 06:09:30;;;;;;;;;;;;;;;25.53;37.65;93585.94;4881199;29;7062;-56
2023/12/22 06:12:20;;;;;;;;;;;;;;;25.55;37.58;93590.91;4896363;29;8900;-55
2023/12/22 06:14:46;;;;;;;;;;;;;;;25.48;37.88;93584.03;4896032;29;7924;-56
2023/12/22 06:17:21;;;;;;;;;;;;;;;25.52;37.14;93584.44;4882531;29;7701;-64
2023/12/22 06:19:56;;;;;;;;;;;;;;;25.50;37.50;93576.00;4896538;29;7192;-64
2023/12/22 06:22:29;;;;;;;;;;;;;;;25.49;37.46;93585.50;4930037;28;8180;-64
2023/12/22 06:24:55;;;;;;;;;;;;;;;25.52;37.54;93589.22;5029208;28;9858;-64
2023/12/22 06:27:22;;;;;;;;;;;;;;;25.54;37.67;93595.69;5026249;28;7236;-64
2023/12/22 06:29:49;;;;;;;;;;;;;;;25.52;37.50;93600.97;5025198;28;7089;-64
2023/12/22 06:32:17;;;;;;;;;;;;;;;25.50;37.25;93600.75;5027616;28;7243;-64
2023/12/22 06:34:52;;;;;;;;;;;;;;;25.52;37.08;93598.22;5030929;28;7333;-64
2023/12/22 06:37:18;;;;;;;;;;;;;;;25.51;37.71;93610.53;5027772;28;7059;-64
2023/12/22 06:39:54;;;;;;;;;;;;;;;25.51;37.75;93607.78;5044895;28;9167;-64
2023/12/22 06:42:21;;;;;;;;;;;;;;;25.49;37.25;93607.53;5025872;28;7267;-64
2023/12/22 06:44:47;;;;;;;;;;;;;;;25.52;37.63;93609.25;5042274;28;8861;-64
2023/12/22 06:47:40;;;;;;;;;;;;;;;25.55;37.91;93610.94;5020155;28;9493;-64
2023/12/22 06:50:13;;;;;;;;;;;;;;;25.50;37.38;93609.03;5014838;28;7322;-64
2023/12/22 06:52:42;;;;;;;;;;;;;;;25.54;37.72;93623.22;5017744;28;7058;-64
2023/12/22 06:55:08;;;;;;;;;;;;;;;25.56;37.71;93628.19;5027211;28;7334;-64
2023/12/22 06:57:37;;;;;;;;;;;;;;;25.58;36.82;93626.38;5036890;28;7278;-64
2023/12/22 07:00:07;;;;;;;;;;;;;;;25.57;37.62;93613.91;5026766;28;7342;-64
2023/12/22 07:02:33;;;;;;;;;;;;;;;25.57;37.52;93619.41;5027267;28;7059;-64
2023/12/22 07:05:20;;;;;;;;;;;;;;;25.59;37.24;93616.88;5030981;28;9123;-64
2023/12/22 07:07:57;;;;;;;;;;;;;;;25.58;37.88;93626.38;5030651;28;8769;-65
2023/12/22 07:10:35;;;;;;;;;;;;;;;25.61;37.56;93630.09;5025742;28;9068;-64
2023/12/22 07:13:13;;;;;;;;;;;;;;;25.62;36.91;93626.09;5021934;28;7505;-65
2023/12/22 07:15:39;;;;;;;;;;;;;;;25.62;36.89;93615.06;5027517;28;9036;-65
2023/12/22 07:18:06;;;;;;;;;;;;;;;25.59;37.04;93625.13;5033821;28;7178;-65
2023/12/22 07:20:34;;;;;;;;;;;;;;;25.58;38.09;93636.69;5035579;28;7718;-65
2023/12/22 07:23:01;;;;;;;;;;;;;;;25.63;38.02;93646.84;5032328;28;8420;-65
2023/12/22 07:25:51;;;;;;;;;;;;;;;25.64;38.14;93640.81;5027708;28;7646;-62
2023/12/22 07:28:47;;;;;;;;;;;;;;;25.67;37.81;93636.25;5045885;28;9000;-61
2023/12/22 07:31:18;;;;;;;;;;;;;;;25.68;37.48;93646.75;4953479;28;7236;-61
2023/12/22 07:33:54;;;;;;;;;;;;;;;25.68;38.00;93663.28;4968078;28;6973;-62
2023/12/22 07:36:35;;;;;;;;;;;;;;;25.68;37.54;93673.53;4956566;28;8794;-61
2023/12/22 07:39:14;;;;;;;;;;;;;;;25.64;38.13;93676.63;4968277;28;9423;-61
2023/12/22 07:41:43;;;;;;;;;;;;;;;25.66;37.54;93681.59;4958587;28;7283;-62
2023/12/22 07:44:17;;;;;;;;;;;;;;;25.66;37.69;93692.59;4959356;28;7183;-61
2023/12/22 07:46:44;;;;;;;;;;;;;;;25.73;38.33;93711.28;4972718;28;7321;-61
2023/12/22 07:49:39;;;;;;;;;;;;;;;25.72;37.61;93713.28;4943946;28;9603;-61
2023/12/22 07:52:06;;;;;;;;;;;;;;;25.71;38.32;93700.03;4947534;28;7272;-61
2023/12/22 07:54:34;;;;;;;;;;;;;;;25.71;38.40;93719.31;4919187;29;7020;-61
2023/12/22 07:57:02;;;;;;;;;;;;;;;25.70;37.78;93721.31;4924598;29;7229;-61
2023/12/22 07:59:44;;;;;;;;;;;;;;;25.69;37.58;93714.31;4929536;29;7299;-61
2023/12/22 08:02:12;;;;;;;;;;;;;;;25.68;38.16;93718.34;4920193;29;9048;-61
2023/12/22 08:04:42;;;;;;;;;;;;;;;25.68;37.62;93720.38;4907411;29;7481;-61
2023/12/22 08:07:19;;;;;;;;;;;;;;;25.68;37.78;93729.38;4920650;28;7426;-61
2023/12/22 08:10:06;;;;;;;;;;;;;;;25.66;38.25;93720.91;4973594;28;7193;-61
2023/12/22 08:12:32;;;;;;;;;;;;;;;25.64;38.20;93712.44;4990431;28;6928;-61
2023/12/22 08:15:16;;;;;;;;;;;;;;;25.68;37.50;93715.59;4971698;28;9111;-61
2023/12/22 08:17:49;;;;;;;;;;;;;;;25.65;37.56;93710.38;4980514;28;7262;-62
2023/12/22 08:20:25;;;;;;;;;;;;;;;25.69;37.87;93719.81;4961186;28;7505;-61
2023/12/22 08:22:52;;;;;;;;;;;;;;;25.69;37.60;93719.81;4977505;28;7481;-61
2023/12/22 08:25:36;;;;;;;;;;;;;;;25.68;38.25;93717.59;4973256;28;7085;-61
2023/12/22 08:28:04;;;;;;;;;;;;;;;25.67;37.45;93719.63;4990087;28;6970;-61
2023/12/22 08:30:33;;;;;;;;;;;;;;;25.72;37.62;93732.56;5029155;28;9099;-61
2023/12/22 08:33:02;;;;;;;;;;;;;;;25.70;37.70;93729.59;5016413;28;9212;-61
2023/12/22 08:35:29;;;;;;;;;;;;;;;25.67;37.53;93725.13;5030410;28;9071;-56
2023/12/22 08:38:00;;;;;;;;;;;;;;;25.69;38.15;93730.84;5021400;28;9520;-65
2023/12/22 08:40:28;;;;;;;;;;;;;;;25.68;37.69;93707.34;5031283;28;9244;-65
2023/12/22 08:42:59;;;;;;;;;;;;;;;25.68;38.35;93718.34;5002442;28;9284;-65
2023/12/22 08:45:28;;;;;;;;;;;;;;;25.70;37.88;93723.34;5028773;28;7021;-65
2023/12/22 08:47:55;;;;;;;;;;;;;;;25.68;37.98;93748.66;5032556;28;7277;-65
2023/12/22 08:50:22;;;;;;;;;;;;;;;25.66;37.60;93748.44;5019959;28;9147;-65
2023/12/22 08:52:48;;;;;;;;;;;;;;;25.67;37.70;93732.63;5021303;28;9459;-65
2023/12/22 08:55:14;;;;;;;;;;;;;;;25.65;37.98;93732.41;5022892;28;8997;-65
2023/12/22 08:57:42;;;;;;;;;;;;;;;25.67;37.44;93727.88;5005293;28;9352;-64
2023/12/22 09:00:09;;;;;;;;;;;;;;;25.71;37.60;93727.59;5027259;28;7165;-65
2023/12/22 09:02:40;;;;;;;;;;;;;;;25.70;37.47;93728.84;5033239;28;7133;-65
2023/12/22 09:05:28;;;;;;;;;;;;;;;25.71;38.20;93722.78;5025485;28;7068;-65
2023/12/22 09:08:04;;;;;;;;;;;;;;;25.69;37.42;93728.09;5014872;28;9325;-65
2023/12/22 09:10:32;;;;;;;;;;;;;;;25.71;37.33;93739.31;5029888;28;7871;-65
2023/12/22 09:13:07;;;;;;;;;;;;;;;25.70;37.53;93737.09;5023919;28;7271;-65
2023/12/22 09:15:36;;;;;;;;;;;;;;;25.72;38.25;93732.56;5031630;28;7571;-65
2023/12/22 09:18:07;;;;;;;;;;;;;;;25.73;37.91;93753.31;5029637;28;7591;-65
2023/12/22 09:20:35;;;;;;;;;;;;;;;25.74;37.35;93754.06;5027982;28;7186;-65
2023/12/22 09:23:09;;;;;;;;;;;;;;;25.74;37.29;93760.31;5012736;28;7238;-64
2023/12/22 09:25:41;;;;;;;;;;;;;;;25.74;37.52;93762.31;5026907;28;7240;-65
2023/12/22 09:28:07;;;;;;;;;;;;;;;25.70;37.78;93757.13;5034310;28;7054;-65
2023/12/22 09:30:37;;;;;;;;;;;;;;;25.70;37.02;93765.41;5021001;28;8719;-64
2023/12/22 09:33:26;;;;;;;;;;;;;;;25.72;37.97;93770.38;5018444;28;7060;-64
2023/12/22 09:35:57;;;;;;;;;;;;;;;25.72;37.25;93787.66;5030920;28;9065;-64
2023/12/22 09:38:25;;;;;;;;;;;;;;;25.72;36.97;93778.63;5014516;28;9073;-64
2023/12/22 09:40:52;;;;;;;;;;;;;;;25.76;37.27;93779.81;5014750;28;7327;-64
2023/12/22 09:43:22;;;;;;;;;;;;;;;25.76;37.66;93779.06;5036248;28;9377;-63
2023/12/22 09:45:53;;;;;;;;;;;;;;;25.78;37.22;93793.81;5010553;28;7000;-63
2023/12/22 09:48:27;;;;;;;;;;;;;;;25.77;37.80;93780.56;5020591;28;7809;-63
2023/12/22 09:51:00;;;;;;;;;;;;;;;25.77;37.97;93777.81;5023051;28;7049;-63
2023/12/22 09:53:31;;;;;;;;;;;;;;;25.75;37.56;93778.31;5026822;28;7066;-63
2023/12/22 09:56:01;;;;;;;;;;;;;;;25.74;37.29;93776.09;5019600;28;9112;-63
2023/12/22 09:58:31;;;;;;;;;;;;;;;25.74;37.91;93776.84;5031209;28;7174;-63
2023/12/22 10:01:02;;;;;;;;;;;;;;;25.74;37.30;93782.34;5024518;28;7353;-63
2023/12/22 10:03:33;;;;;;;;;;;;;;;25.74;37.01;93782.34;5030433;28;7141;-63
2023/12/22 10:06:02;;;;;;;;;;;;;;;25.76;37.79;93796.34;5022114;28;7244;-63
2023/12/22 10:08:28;;;;;;;;;;;;;;;25.76;37.47;93796.34;5022613;28;7344;-63
2023/12/22 10:10:56;;;;;;;;;;;;;;;25.74;37.63;93776.09;5013532;28;7116;-63
2023/12/22 10:13:27;;;;;;;;;;;;;;;25.73;37.20;93780.84;5018007;28;7278;-64
2023/12/22 10:16:06;;;;;;;;;;;;;;;25.75;37.43;93792.09;5021264;28;7252;-64
2023/12/22 10:18:33;;;;;;;;;;;;;;;25.75;36.96;93789.31;5029103;28;7063;-63
2023/12/22 10:21:00;;;;;;;;;;;;;;;25.71;37.28;93777.88;5020446;28;7322;-64
2023/12/22 10:23:30;;;;;;;;;;;;;;;25.71;37.66;93761.34;5029050;28;7323;-63
2023/12/22 10:25:58;;;;;;;;;;;;;;;25.73;37.79;93764.31;5019542;28;9589;-63
2023/12/22 10:28:27;;;;;;;;;;;;;;;25.74;37.27;93759.56;5028294;28;7328;-63
2023/12/22 10:30:57;;;;;;;;;;;;;;;25.75;37.35;93748.00;5029950;28;7127;-63
2023/12/22 10:33:41;;;;;;;;;;;;;;;25.77;37.71;93747.50;5030150;28;7227;-63
2023/12/22 10:36:09;;;;;;;;;;;;;;;25.72;37.25;93746.31;5043121;28;7259;-63
2023/12/22 10:38:50;;;;;;;;;;;;;;;25.74;37.61;93743.78;5030815;28;7074;-63
2023/12/22 10:41:16;;;;;;;;;;;;;;;25.72;37.78;93731.81;5022631;28;9249;-63
2023/12/22 10:43:47;;;;;;;;;;;;;;;25.72;37.19;93738.06;5035966;28;7109;-63
2023/12/22 10:46:13;;;;;;;;;;;;;;;25.74;37.09;93732.78;5029619;28;9489;-63
2023/12/22 10:48:53;;;;;;;;;;;;;;;25.74;37.87;93727.25;5027779;28;7183;-63
2023/12/22 10:51:19;;;;;;;;;;;;;;;25.76;37.62;93729.47;5019787;28;9012;-63
2023/12/22 10:53:54;;;;;;;;;;;;;;;25.72;37.99;93718.03;5030150;28;7293;-63
2023/12/22 10:56:28;;;;;;;;;;;;;;;25.70;37.92;93713.06;5021299;28;8460;-62
2023/12/22 10:59:08;;;;;;;;;;;;;;;25.71;37.86;93717.28;5015622;28;7183;-62
2023/12/22 11:01:38;;;;;;;;;;;;;;;25.70;37.57;93710.31;5018010;28;7526;-61
2023/12/22 11:04:19;;;;;;;;;;;;;;;25.75;37.78;93714.97;5025708;28;8188;-61
2023/12/22 11:06:59;;;;;;;;;;;;;;;25.76;37.59;93704.69;5016059;28;7018;-61
2023/12/22 11:09:29;;;;;;;;;;;;;;;25.74;37.68;93699.72;5017134;28;7271;-61
2023/12/22 11:12:03;;;;;;;;;;;;;;;25.73;37.64;93697.50;5027195;28;8649;-61
2023/12/22 11:14:50;;;;;;;;;;;;;;;25.71;37.13;93705.53;5024462;28;7953;-61
2023/12/22 11:17:36;;;;;;;;;;;;;;;25.71;37.77;93675.97;5034499;28;7250;-61
2023/12/22 11:20:16;;;;;;;;;;;;;;;25.73;37.64;93678.22;5041460;28;7017;-61
2023/12/22 11:22:59;;;;;;;;;;;;;;;25.74;37.63;93669.41;5012692;28;7895;-61
2023/12/22 11:25:26;;;;;;;;;;;;;;;25.71;37.91;93667.00;5013327;28;7279;-62
2023/12/22 11:28:22;;;;;;;;;;;;;;;25.68;37.58;93663.28;5024843;28;7272;-61
2023/12/22 11:31:02;;;;;;;;;;;;;;;25.63;37.94;93666.13;4978331;28;7256;-61
2023/12/22 11:33:39;;;;;;;;;;;;;;;25.63;38.25;93655.09;4974134;28;9354;-61
2023/12/22 11:36:08;;;;;;;;;;;;;;;25.65;38.01;93642.28;4978724;28;7069;-60
2023/12/22 11:38:46;;;;;;;;;;;;;;;25.63;37.82;93641.34;4978230;28;7272;-61
2023/12/22 11:41:44;;;;;;;;;;;;;;;25.69;37.53;93630.94;4986146;28;8200;-61
2023/12/22 11:44:47;;;;;;;;;;;;;;;25.71;38.17;93622.91;4949380;29;9446;-61
2023/12/22 11:47:23;;;;;;;;;;;;;;;25.72;38.21;93618.88;4858108;29;9564;-61
2023/12/22 11:50:01;;;;;;;;;;;;;;;25.74;38.47;93611.56;4842409;29;6996;-61
2023/12/22 11:52:28;;;;;;;;;;;;;;;25.76;37.58;93608.28;4843404;29;7266;-61
2023/12/22 11:55:07;;;;;;;;;;;;;;;25.75;38.20;93613.03;4845896;29;9157;-61
2023/12/22 11:57:49;;;;;;;;;;;;;;;25.77;38.36;93599.50;4833766;29;7186;-61
2023/12/22 12:00:22;;;;;;;;;;;;;;;25.77;37.94;93593.25;4840229;29;9120;-61
2023/12/22 12:02:57;;;;;;;;;;;;;;;25.76;37.96;93575.97;4860170;29;7160;-61
2023/12/22 12:06:06;;;;;;;;;;;;;;;25.78;38.34;93584.44;4861121;29;7232;-61
2023/12/22 12:08:54;;;;;;;;;;;;;;;25.78;38.24;93581.69;4887510;29;7240;-61
2023/12/22 12:11:23;;;;;;;;;;;;;;;25.78;37.72;93584.44;4893269;29;9315;-60
2023/12/22 12:13:54;;;;;;;;;;;;;;;25.79;37.96;93580.44;4882106;29;7246;-60
2023/12/22 12:16:52;;;;;;;;;;;;;;;25.78;38.48;93580.94;4897339;29;6994;-60
2023/12/22 12:19:20;;;;;;;;;;;;;;;25.78;37.85;93584.44;4858603;29;7244;-60
2023/12/22 12:22:05;;;;;;;;;;;;;;;25.81;37.34;93586.16;4891227;28;7300;-60
2023/12/22 12:24:36;;;;;;;;;;;;;;;25.81;37.96;93585.41;4965243;28;7239;-60
2023/12/22 12:27:19;;;;;;;;;;;;;;;25.79;38.02;93574.19;4956378;28;7136;-60
2023/12/22 12:29:46;;;;;;;;;;;;;;;25.81;37.87;93577.13;4944591;28;7706;-60
2023/12/22 12:32:28;;;;;;;;;;;;;;;25.79;37.11;93572.16;4945751;28;9300;-60
2023/12/22 12:34:56;;;;;;;;;;;;;;;25.81;38.16;93580.63;4957191;28;7310;-60
2023/12/22 12:37:31;;;;;;;;;;;;;;;25.80;37.64;93581.91;4966122;28;8754;-60
2023/12/22 12:40:02;;;;;;;;;;;;;;;25.81;38.01;93583.41;4967406;28;7177;-60
2023/12/22 12:42:32;;;;;;;;;;;;;;;25.79;37.74;93585.94;4965648;28;8761;-60
2023/12/22 12:45:02;;;;;;;;;;;;;;;25.78;38.01;93573.44;4964892;28;7251;-60
2023/12/22 12:47:28;;;;;;;;;;;;;;;25.81;37.81;93577.13;4968557;28;8579;-60
2023/12/22 12:50:05;;;;;;;;;;;;;;;25.79;37.97;93577.69;4964151;28;7042;-60
2023/12/22 12:52:42;;;;;;;;;;;;;;;25.79;37.66;93568.66;4962523;28;7692;-60
2023/12/22 12:55:36;;;;;;;;;;;;;;;25.76;38.30;93578.72;4983199;28;7308;-60
2023/12/22 12:58:10;;;;;;;;;;;;;;;25.79;37.93;93582.44;4988896;28;7341;-61
2023/12/22 13:00:37;;;;;;;;;;;;;;;25.75;37.73;93580.00;4975554;28;7236;-61
2023/12/22 13:03:05;;;;;;;;;;;;;;;25.72;38.22;93581.06;4959459;28;7065;-61
2023/12/22 13:05:33;;;;;;;;;;;;;;;25.69;37.67;93576.59;4987250;28;7251;-61
2023/12/22 13:08:13;;;;;;;;;;;;;;;25.66;37.86;93574.94;4989657;28;7064;-61
2023/12/22 13:10:44;;;;;;;;;;;;;;;25.64;38.69;93577.47;4965457;28;7211;-60
2023/12/22 13:13:30;;;;;;;;;;;;;;;25.62;38.82;93582.03;4992359;28;7665;-61
2023/12/22 13:15:57;;;;;;;;;;;;;;;25.59;38.25;93578.31;4969629;28;6986;-60
2023/12/22 13:18:26;;;;;;;;;;;;;;;25.56;37.92;93568.34;4980596;28;7253;-60
2023/12/22 13:20:52;;;;;;;;;;;;;;;25.55;38.71;93575.16;4985840;28;8963;-60
2023/12/22 13:23:21;;;;;;;;;;;;;;;25.55;38.49;93577.91;4975788;28;7218;-61
2023/12/22 13:25:50;;;;;;;;;;;;;;;25.55;38.65;93579.91;4982724;28;7220;-61
2023/12/22 13:28:25;;;;;;;;;;;;;;;25.54;38.65;93587.41;4985671;28;7181;-60